Time;durP1;ratioP1;P1;durP2;ratioP2;P2;SDS_P1;SDS_P2;PMS_P1;PMS_P2;Temp;Humidity;BMP_temperature;BMP_pressure;BME280_temperature;BME280_humidity;BME280_pressure;Samples;Min_cycle;Max_cycle;Signal;HPM_P1;HPM_P2
2021/08/27 00:47:51;;;;;;;3.67;0.63;;;;;;;15.24;48.98;101040.69;5250298;23;20116;-77
2021/08/27 00:50:19;;;;;;;0.68;0.63;;;;;;;15.22;49.10;101034.66;4888678;29;20402;-76
2021/08/27 00:52:44;;;;;;;0.60;0.60;;;;;;;15.14;48.77;101030.53;4886239;29;20033;-76
2021/08/27 00:55:10;;;;;;;1.10;0.93;;;;;;;15.20;48.87;101048.72;4869857;29;20039;-73
2021/08/27 00:57:36;;;;;;;0.70;0.45;;;;;;;15.16;49.02;101044.88;4898617;29;20028;-75
2021/08/27 01:00:06;;;;;;;1.27;1.02;;;;;;;15.14;49.85;101049.81;4888470;29;20036;-73
2021/08/27 01:02:31;;;;;;;0.40;0.40;;;;;;;15.09;49.26;101047.91;4879191;29;20488;-76
2021/08/27 01:05:00;;;;;;;0.70;0.68;;;;;;;15.02;49.77;101033.63;4861734;29;20048;-76
2021/08/27 01:07:44;;;;;;;1.10;1.10;;;;;;;15.01;50.17;101032.81;4914033;29;20036;-75
2021/08/27 01:10:21;;;;;;;1.08;0.63;;;;;;;15.03;49.93;101038.03;4913521;29;20052;-76
2021/08/27 01:13:09;;;;;;;0.82;0.70;;;;;;;14.96;50.53;101030.06;4903594;29;20028;-76
2021/08/27 01:16:02;;;;;;;2.47;0.52;;;;;;;14.93;50.72;101036.13;4906667;29;20043;-75
2021/08/27 01:18:38;;;;;;;0.52;0.40;;;;;;;14.81;50.30;101028.19;4888409;29;20041;-76
2021/08/27 01:21:03;;;;;;;0.50;0.47;;;;;;;14.81;50.91;101032.88;4903018;29;20028;-75
2021/08/27 01:23:45;;;;;;;0.95;0.60;;;;;;;14.73;50.68;101026.00;4892123;29;20028;-77
2021/08/27 01:26:17;;;;;;;1.42;0.70;;;;;;;14.69;50.81;101030.44;4904003;29;20024;-76
2021/08/27 01:28:48;;;;;;;2.10;0.40;;;;;;;14.65;51.06;101023.84;4906889;29;20093;-75
2021/08/27 01:31:48;;;;;;;6.82;0.50;;;;;;;14.61;51.14;101025.47;4907290;29;20028;-75
2021/08/27 01:34:24;;;;;;;0.30;0.30;;;;;;;14.55;51.28;101021.88;4891770;29;20141;-76
2021/08/27 01:36:51;;;;;;;;;;;;;;;14.49;50.96;101017.50;4906836;29;20464;-76
2021/08/27 01:39:18;;;;;;;0.47;0.43;;;;;;;14.41;51.11;101018.91;4903519;29;19923;-75
2021/08/27 01:41:49;;;;;;;0.50;0.50;;;;;;;14.41;51.18;101023.56;4888610;29;20128;-74
2021/08/27 01:44:16;;;;;;;0.45;0.40;;;;;;;14.32;52.03;101010.38;4884798;29;20032;-72
2021/08/27 01:46:43;;;;;;;0.40;0.40;;;;;;;14.34;52.07;101023.00;4904510;29;20036;-75
2021/08/27 01:49:10;;;;;;;0.70;0.50;;;;;;;14.26;51.58;101027.16;4886511;29;20076;-74
2021/08/27 01:51:37;;;;;;;0.50;0.50;;;;;;;14.23;51.43;101024.97;4884425;29;20028;-74
2021/08/27 01:54:06;;;;;;;0.20;0.20;;;;;;;14.18;51.61;101012.03;4893388;29;20029;-75
2021/08/27 01:56:40;;;;;;;0.17;0.17;;;;;;;14.17;51.55;101017.81;4873486;29;20387;-76
2021/08/27 02:02:56;;;;;;;0.70;0.70;;;;;;;14.14;51.97;101014.50;4903416;29;20052;-75
2021/08/27 02:12:22;;;;;;;;;;;;;;;;;;;;;
2021/08/27 02:14:50;;;;;;;1.27;0.65;;;;;;;14.12;53.29;101016.72;4908170;29;20174;-74
2021/08/27 02:17:16;;;;;;;0.80;0.80;;;;;;;14.11;53.33;101020.56;4908874;29;20029;-74
2021/08/27 02:19:43;;;;;;;0.60;0.60;;;;;;;14.03;53.11;101012.88;4900326;29;20020;-75
2021/08/27 02:22:16;;;;;;;1.67;0.82;;;;;;;14.05;53.68;101013.41;4904805;29;20040;-74
2021/08/27 02:24:48;;;;;;;0.77;0.77;;;;;;;13.95;53.48;101016.16;4886252;29;20028;-74
2021/08/27 02:27:14;;;;;;;0.80;0.70;;;;;;;13.93;53.36;101019.19;4897992;29;20073;-74
2021/08/27 02:29:43;;;;;;;0.70;0.70;;;;;;;13.83;53.93;101007.34;4903713;29;20112;-74
2021/08/27 02:32:10;;;;;;;0.40;0.30;;;;;;;13.81;53.69;101015.03;4897245;29;20043;-73
2021/08/27 02:34:40;;;;;;;0.30;0.30;;;;;;;13.78;53.61;101017.25;4904537;29;20076;-74
2021/08/27 02:37:06;;;;;;;0.40;0.40;;;;;;;13.78;53.75;101022.75;4903662;29;20036;-74
2021/08/27 02:39:32;;;;;;;0.50;0.38;;;;;;;13.78;54.31;101035.66;4874535;29;20028;-72
2021/08/27 02:41:59;;;;;;;0.25;0.25;;;;;;;13.67;54.14;101010.09;4903552;29;20035;-76
2021/08/27 02:44:25;;;;;;;0.50;0.30;;;;;;;13.64;54.32;101015.28;4886672;29;20024;-74
2021/08/27 02:46:53;;;;;;;0.43;0.43;;;;;;;13.60;54.09;101015.84;4902661;29;20119;-74
2021/08/27 02:49:19;;;;;;;1.25;0.40;;;;;;;13.60;54.42;101023.25;4903163;29;20036;-74
2021/08/27 02:51:54;;;;;;;0.95;0.40;;;;;;;13.60;54.17;101020.50;4885100;29;20460;-74
2021/08/27 02:54:22;;;;;;;0.20;0.20;;;;;;;13.60;54.43;101015.84;4904434;29;20028;-76
2021/08/27 02:56:52;;;;;;;0.30;0.28;;;;;;;13.62;54.84;101012.81;4899567;29;20032;-75
2021/08/27 02:59:20;;;;;;;0.45;0.45;;;;;;;13.61;54.54;101019.44;4879258;29;20120;-74
2021/08/27 03:01:52;;;;;;;0.40;0.40;;;;;;;13.50;54.73;101007.56;4886473;29;20028;-74
2021/08/27 03:04:58;;;;;;;0.68;0.60;;;;;;;13.54;54.91;101016.13;4886208;29;20037;-74
2021/08/27 03:07:29;;;;;;;0.70;0.70;;;;;;;13.43;54.83;101010.59;4886477;29;20100;-75
2021/08/27 03:10:36;;;;;;;0.55;0.40;;;;;;;13.34;55.18;101003.97;4900562;29;20032;-75
2021/08/27 03:13:12;;;;;;;;;;;;;;;13.38;55.32;101018.00;4897792;29;20040;-75
2021/08/27 03:16:35;;;;;;;;;;;;;;;;;;;;;
2021/08/27 03:19:04;;;;;;;0.43;0.40;;;;;;;13.29;54.96;101014.91;4872879;29;20111;-74
2021/08/27 03:21:57;;;;;;;0.95;0.50;;;;;;;13.10;55.40;100992.59;4904612;29;20035;-74
2021/08/27 03:24:29;;;;;;;0.32;0.30;;;;;;;13.12;55.15;101008.81;4900206;29;20080;-75
2021/08/27 03:27:02;;;;;;;0.52;0.30;;;;;;;13.16;55.59;101018.16;4888702;29;20032;-75
2021/08/27 03:29:30;;;;;;;0.75;0.30;;;;;;;13.12;55.48;101019.78;4906003;29;20037;-76
2021/08/27 03:31:57;;;;;;;0.30;0.30;;;;;;;13.02;55.39;101015.06;4903290;29;20063;-75
2021/08/27 03:34:44;;;;;;;0.75;0.30;;;;;;;12.91;55.68;101004.06;4911163;29;20037;-75
2021/08/27 03:37:09;;;;;;;;;;;;;;;12.90;55.84;101023.53;4908722;29;20048;-73
2021/08/27 03:39:36;;;;;;;1.55;1.00;;;;;;;12.80;56.10;101023.47;4901718;29;19922;-71
2021/08/27 03:42:03;;;;;;;2.10;0.95;;;;;;;12.69;56.96;101020.69;4884881;29;20475;-71
2021/08/27 03:44:31;;;;;;;0.70;0.70;;;;;;;12.62;56.72;101011.88;4903066;29;20132;-71
2021/08/27 03:46:57;;;;;;;0.68;0.68;;;;;;;12.58;57.30;101018.97;4912651;29;20064;-69
2021/08/27 03:49:26;;;;;;;0.50;0.50;;;;;;;12.56;57.03;101012.94;4888520;29;20056;-72
2021/08/27 03:51:52;;;;;;;0.68;0.68;;;;;;;12.49;56.62;101006.84;4896025;29;20037;-71
2021/08/27 03:54:21;;;;;;;0.57;0.57;;;;;;;12.50;57.64;101003.00;4918604;29;20836;-72
2021/08/27 03:56:49;;;;;;;0.47;0.47;;;;;;;12.54;56.72;101015.09;4910718;29;20035;-72
2021/08/27 03:59:18;;;;;;;0.70;0.70;;;;;;;12.53;57.44;101007.97;4905159;29;20032;-73
2021/08/27 04:01:53;;;;;;;0.70;0.63;;;;;;;12.46;57.08;100999.16;4903009;29;20111;-72
2021/08/27 04:04:21;;;;;;;0.75;0.75;;;;;;;12.54;57.13;101010.47;4907309;29;20389;-73
2021/08/27 04:07:06;;;;;;;0.50;0.50;;;;;;;12.50;56.98;101009.31;4897116;29;20033;-71
2021/08/27 04:09:34;;;;;;;0.95;0.40;;;;;;;12.54;57.26;101015.94;4905215;29;20078;-72
2021/08/27 04:12:03;;;;;;;0.63;0.50;;;;;;;12.53;57.07;101018.94;4903857;29;20123;-71
2021/08/27 04:14:29;;;;;;;1.60;0.93;;;;;;;12.48;57.60;101010.66;4890310;29;20025;-72
2021/08/27 04:16:56;;;;;;;1.40;1.30;;;;;;;12.41;57.83;101016.38;4902378;29;20033;-73
2021/08/27 04:19:21;;;;;;;0.95;0.65;;;;;;;12.38;57.69;101014.16;4886821;29;20056;-73
2021/08/27 04:21:47;;;;;;;0.60;0.60;;;;;;;12.34;57.83;101016.63;4899756;29;20063;-72
2021/08/27 04:24:12;;;;;;;0.70;0.70;;;;;;;12.28;57.79;101017.69;4890865;29;20021;-70
2021/08/27 04:26:39;;;;;;;0.40;0.40;;;;;;;12.35;58.08;101025.66;4900613;29;20088;-73
2021/08/27 04:29:05;;;;;;;0.60;0.47;;;;;;;12.35;58.10;101023.78;4905024;29;20024;-75
2021/08/27 04:31:41;;;;;;;0.65;0.60;;;;;;;12.34;57.92;101018.56;4901586;29;20439;-74
2021/08/27 04:34:07;;;;;;;0.47;0.47;;;;;;;12.36;58.46;101030.88;4903970;29;20039;-74
2021/08/27 04:36:40;;;;;;;0.35;0.35;;;;;;;12.53;57.75;101035.41;4881736;29;20029;-74
2021/08/27 04:39:15;;;;;;;1.83;0.50;;;;;;;12.55;58.23;101028.53;4898937;29;20040;-75
2021/08/27 04:41:41;;;;;;;0.60;0.57;;;;;;;12.64;58.09;101028.88;4903261;29;20039;-74
2021/08/27 04:44:14;;;;;;;0.40;0.40;;;;;;;12.73;58.36;101035.53;4883016;29;20037;-74
2021/08/27 04:46:39;;;;;;;0.60;0.60;;;;;;;12.81;58.05;101033.38;4878875;29;20484;-74
2021/08/27 04:49:05;;;;;;;0.63;0.50;;;;;;;12.90;58.03;101035.34;4902531;29;20029;-74
2021/08/27 04:51:30;;;;;;;0.95;0.65;;;;;;;13.07;58.27;101050.81;4903869;29;20036;-74
2021/08/27 04:54:00;;;;;;;1.45;0.47;;;;;;;13.09;57.59;101043.94;4906968;29;20029;-75
2021/08/27 04:56:28;;;;;;;0.38;0.30;;;;;;;13.18;57.87;101046.19;4903337;29;20029;-74
2021/08/27 04:58:54;;;;;;;1.60;0.60;;;;;;;13.28;57.94;101046.22;4884839;29;20464;-74
2021/08/27 05:01:19;;;;;;;0.63;0.63;;;;;;;13.30;58.23;101033.03;4900746;29;20084;-74
2021/08/27 05:03:45;;;;;;;1.75;0.90;;;;;;;13.37;58.15;101033.63;4900651;29;20124;-75
2021/08/27 05:06:10;;;;;;;0.50;0.50;;;;;;;13.52;58.25;101049.34;4901831;29;20028;-75
2021/08/27 05:08:36;;;;;;;0.93;0.60;;;;;;;13.60;57.91;101054.31;4901685;29;20363;-73
2021/08/27 05:11:07;;;;;;;0.52;0.40;;;;;;;13.68;58.04;101047.47;4893441;29;20045;-75
2021/08/27 05:13:33;;;;;;;1.00;0.90;;;;;;;13.65;57.93;101045.25;4876365;29;20040;-74
2021/08/27 05:16:02;;;;;;;2.58;0.90;;;;;;;13.68;57.83;101046.63;4891148;29;20016;-73
2021/08/27 05:18:59;;;;;;;0.63;0.63;;;;;;;13.75;57.46;101050.75;4849894;29;20029;-73
2021/08/27 05:21:31;;;;;;;1.23;1.00;;;;;;;13.86;57.23;101067.28;4891145;29;20051;-74
2021/08/27 05:24:07;;;;;;;;;;;;;;;;;;;;;
2021/08/27 05:30:03;;;;;;;;;;;;;;;;;;;;;
2021/08/27 05:32:29;;;;;;;0.40;0.40;;;;;;;13.83;57.17;101063.16;4902274;29;20108;-75
2021/08/27 05:35:00;;;;;;;0.38;0.38;;;;;;;13.86;56.71;101059.06;4907740;29;20056;-72
2021/08/27 05:37:26;;;;;;;0.50;0.43;;;;;;;13.93;57.50;101070.56;4887493;29;20029;-75
2021/08/27 05:40:01;;;;;;;;;;;;;;;;;;;;;
2021/08/27 05:42:35;;;;;;;1.40;1.30;;;;;;;13.93;57.10;101057.69;4906732;29;20123;-74
2021/08/27 05:45:01;;;;;;;1.00;0.80;;;;;;;14.06;57.30;101067.31;4906988;29;20076;-74
2021/08/27 05:47:36;;;;;;;0.70;0.70;;;;;;;14.06;56.86;101056.31;4902534;29;20401;-75
2021/08/27 05:50:05;;;;;;;0.70;0.70;;;;;;;14.17;57.34;101061.81;4886142;29;20056;-75
2021/08/27 05:52:52;;;;;;;0.82;0.80;;;;;;;14.25;56.84;101073.09;4884233;29;20032;-74
2021/08/27 05:55:19;;;;;;;1.50;0.80;;;;;;;14.33;57.26;101082.72;4863371;29;20065;-76
2021/08/27 05:57:54;;;;;;;0.60;0.60;;;;;;;14.34;57.06;101070.63;4905021;29;20053;-74
2021/08/27 06:00:26;;;;;;;0.95;0.93;;;;;;;14.45;56.87;101074.19;4889272;29;20040;-78
2021/08/27 06:02:52;;;;;;;0.63;0.63;;;;;;;14.58;56.60;101083.81;4889063;29;20385;-75
2021/08/27 06:05:20;;;;;;;0.63;0.63;;;;;;;14.63;56.75;101086.56;4890228;29;20047;-75
2021/08/27 06:07:46;;;;;;;1.75;0.77;;;;;;;14.71;56.01;101094.28;4900454;29;20115;-75
2021/08/27 06:10:11;;;;;;;0.90;0.90;;;;;;;14.80;55.75;101098.09;4902629;29;20052;-75
2021/08/27 06:12:38;;;;;;;0.70;0.70;;;;;;;14.82;55.93;101087.66;4871480;29;20072;-75
2021/08/27 06:15:04;;;;;;;1.02;1.02;;;;;;;14.95;55.77;101090.94;4898762;29;20044;-75
2021/08/27 06:17:39;;;;;;;;;;;;;;;;;;;;;
2021/08/27 06:20:09;;;;;;;0.88;0.82;;;;;;;15.10;55.80;101090.91;4901508;29;20123;-76
2021/08/27 06:22:35;;;;;;;0.70;0.55;;;;;;;15.16;55.81;101089.75;4906842;29;20032;-71
2021/08/27 06:25:08;;;;;;;1.05;0.90;;;;;;;15.26;55.35;101094.44;4882967;29;20111;-73
2021/08/27 06:27:34;;;;;;;1.02;0.93;;;;;;;15.27;55.28;101089.72;4885794;29;20039;-72
2021/08/27 06:30:00;;;;;;;1.58;0.60;;;;;;;15.32;55.53;101092.47;4883524;29;20009;-72
2021/08/27 06:32:27;;;;;;;3.90;0.80;;;;;;;15.38;54.80;101096.03;4859837;29;20036;-71
2021/08/27 06:34:55;;;;;;;3.15;0.68;;;;;;;15.43;54.65;101096.81;4900437;29;20074;-71
2021/08/27 06:37:21;;;;;;;0.52;0.50;;;;;;;15.44;54.73;101104.00;4882571;29;20045;-72
2021/08/27 06:39:47;;;;;;;0.40;0.40;;;;;;;15.49;54.62;101108.66;4884863;29;20097;-72
2021/08/27 06:42:12;;;;;;;1.10;0.30;;;;;;;15.57;54.73;101115.53;4900706;29;20025;-71
2021/08/27 06:44:38;;;;;;;0.40;0.38;;;;;;;15.64;55.06;101113.28;4882857;29;20033;-71
2021/08/27 06:47:04;;;;;;;0.40;0.40;;;;;;;15.68;54.68;101108.81;4880191;29;20045;-72
2021/08/27 06:49:29;;;;;;;0.20;0.20;;;;;;;15.76;54.40;101107.44;4885108;29;20104;-71
2021/08/27 06:51:55;;;;;;;2.42;0.60;;;;;;;15.80;54.84;101103.84;4862287;29;20041;-72
2021/08/27 06:54:20;;;;;;;0.20;0.20;;;;;;;15.88;54.42;101114.25;4883300;29;20025;-71
2021/08/27 06:56:46;;;;;;;1.42;0.30;;;;;;;15.94;54.31;101108.72;4881231;29;20039;-71
2021/08/27 06:59:11;;;;;;;0.38;0.38;;;;;;;16.00;54.64;101113.09;4867135;29;20037;-72
2021/08/27 07:01:36;;;;;;;0.30;0.30;;;;;;;16.11;54.60;101114.69;4885168;29;20029;-72
2021/08/27 07:04:02;;;;;;;0.30;0.30;;;;;;;16.22;54.16;101107.13;4885628;29;20043;-73
2021/08/27 07:06:28;;;;;;;0.10;0.10;;;;;;;16.33;54.37;101105.16;4865056;29;20045;-73
2021/08/27 07:08:54;;;;;;;0.30;0.30;;;;;;;16.45;53.94;101102.81;4849896;29;20170;-74
2021/08/27 07:11:21;;;;;;;0.20;0.20;;;;;;;16.60;53.48;101098.28;4864589;29;20069;-73
2021/08/27 07:13:48;;;;;;;1.38;0.40;;;;;;;16.70;53.39;101106.47;4835628;29;20125;-73
2021/08/27 07:16:14;;;;;;;0.88;0.43;;;;;;;16.78;53.30;101100.31;4835725;29;20041;-74
2021/08/27 07:18:40;;;;;;;0.70;0.70;;;;;;;16.88;53.02;101104.94;4868084;29;20052;-73
2021/08/27 07:21:07;;;;;;;0.38;0.38;;;;;;;16.91;53.09;101099.66;4848719;29;20037;-73
2021/08/27 07:23:33;;;;;;;0.30;0.30;;;;;;;17.10;53.10;101099.72;4868539;29;20040;-73
2021/08/27 07:25:59;;;;;;;4.28;0.52;;;;;;;17.30;53.19;101099.78;4852821;29;20043;-73
2021/08/27 07:28:26;;;;;;;0.85;0.52;;;;;;;17.49;52.58;101108.94;4848690;29;20097;-73
2021/08/27 07:30:52;;;;;;;1.25;0.70;;;;;;;17.61;52.66;101101.03;4858490;29;20045;-74
2021/08/27 07:33:18;;;;;;;1.08;1.00;;;;;;;17.72;52.20;101106.44;4845420;29;20096;-75
2021/08/27 07:35:44;;;;;;;1.52;1.05;;;;;;;17.88;52.45;101109.81;4880023;29;20384;-76
2021/08/27 07:38:10;;;;;;;3.55;0.90;;;;;;;17.99;51.98;101104.97;4866296;29;20037;-76
2021/08/27 07:40:36;;;;;;;1.00;0.90;;;;;;;18.16;51.74;101113.56;4866931;29;20045;-74
2021/08/27 07:43:01;;;;;;;1.90;1.02;;;;;;;18.27;51.61;101120.59;4847200;29;20043;-74
2021/08/27 07:45:27;;;;;;;0.95;0.80;;;;;;;18.44;51.39;101111.75;4843402;29;20040;-74
2021/08/27 07:48:38;;;;;;;1.45;1.00;;;;;;;18.63;50.73;101117.22;4892922;29;20055;-74
2021/08/27 07:57:18;;;;;;;1.00;0.88;;;;;;;19.17;49.86;101122.34;4165543;23;20048;-74
2021/08/27 08:02:50;;;;;;;1.00;0.80;;;;;;;19.42;48.98;101123.81;4908129;29;19914;-74
2021/08/27 08:05:15;;;;;;;0.93;0.68;;;;;;;19.51;49.08;101124.72;4920398;29;20467;-74
2021/08/27 08:07:43;;;;;;;2.70;1.48;;;;;;;19.59;48.97;101130.66;4919804;29;20075;-74
2021/08/27 08:10:09;;;;;;;0.98;0.70;;;;;;;19.63;48.63;101123.38;4889622;29;20064;-75
2021/08/27 08:12:35;;;;;;;0.90;0.90;;;;;;;19.69;48.91;101120.16;4917433;29;20043;-75
2021/08/27 08:15:00;;;;;;;0.98;0.98;;;;;;;19.79;48.65;101121.13;4923969;29;20038;-74
2021/08/27 08:17:25;;;;;;;0.70;0.63;;;;;;;19.88;48.05;101127.56;4906580;29;20036;-74
2021/08/27 08:19:51;;;;;;;3.75;1.17;;;;;;;19.99;48.46;101120.66;4924443;29;20096;-76
2021/08/27 08:22:21;;;;;;;1.35;0.88;;;;;;;20.08;48.20;101117.97;4908013;29;20067;-75
2021/08/27 08:25:06;;;;;;;1.40;1.05;;;;;;;20.23;48.31;101108.44;4912245;29;20099;-75
2021/08/27 08:27:41;;;;;;;1.90;0.95;;;;;;;20.46;48.18;101127.88;4915322;29;20059;-74
2021/08/27 08:30:25;;;;;;;1.77;1.05;;;;;;;20.59;47.43;101115.88;4927318;29;20039;-74
2021/08/27 08:32:52;;;;;;;1.73;1.00;;;;;;;20.74;47.53;101128.59;4929063;29;20036;-74
2021/08/27 08:35:37;;;;;;;2.75;0.95;;;;;;;20.91;47.28;101125.09;4928531;29;20051;-74
2021/08/27 08:38:38;;;;;;;1.10;0.93;;;;;;;21.16;46.48;101133.84;4923717;29;20385;-74
2021/08/27 08:41:09;;;;;;;8.70;2.40;;;;;;;21.13;46.11;101128.94;4911796;29;20063;-75
2021/08/27 08:43:37;;;;;;;1.10;0.98;;;;;;;21.17;45.70;101124.38;4891214;29;20055;-73
2021/08/27 08:46:03;;;;;;;3.75;1.52;;;;;;;21.22;45.70;101132.59;4897995;29;20048;-75
2021/08/27 08:48:34;;;;;;;1.40;1.30;;;;;;;21.28;45.35;101134.88;4909913;29;20059;-74
2021/08/27 08:51:05;;;;;;;1.73;0.90;;;;;;;21.38;45.60;101136.56;4920100;29;20095;-73
2021/08/27 08:53:34;;;;;;;1.52;0.77;;;;;;;21.63;45.33;101141.75;4893664;29;20033;-74
2021/08/27 08:56:05;;;;;;;3.55;0.75;;;;;;;21.82;44.77;101147.03;4890008;29;20056;-73
2021/08/27 08:58:48;;;;;;;1.00;0.57;;;;;;;21.95;44.60;101144.06;4920729;29;20048;-74
2021/08/27 09:01:17;;;;;;;0.57;0.57;;;;;;;22.05;44.54;101142.94;4910462;29;20004;-73
2021/08/27 09:03:52;;;;;;;1.10;0.77;;;;;;;22.20;43.97;101141.63;4904008;29;20040;-73
2021/08/27 09:06:17;;;;;;;0.70;0.70;;;;;;;22.25;43.89;101140.66;4891939;29;20051;-72
2021/08/27 09:08:45;;;;;;;1.23;1.13;;;;;;;22.30;43.73;101140.50;4922612;29;20036;-72
2021/08/27 09:11:24;;;;;;;1.08;0.80;;;;;;;22.41;44.01;101144.59;4920488;29;20024;-73
2021/08/27 09:13:55;;;;;;;2.03;0.88;;;;;;;22.49;43.24;101149.34;4920571;29;20104;-72
2021/08/27 09:16:33;;;;;;;1.50;1.10;;;;;;;22.58;43.22;101151.31;4903061;29;20465;-73
2021/08/27 09:19:00;;;;;;;2.30;0.73;;;;;;;22.55;42.99;101155.56;4918718;29;20040;-74
2021/08/27 09:21:30;;;;;;;1.90;0.80;;;;;;;22.51;42.73;101156.56;4906163;29;20040;-72
2021/08/27 09:24:27;;;;;;;0.80;0.70;;;;;;;22.44;42.60;101154.28;4921013;29;20043;-75
2021/08/27 09:27:07;;;;;;;0.65;0.65;;;;;;;22.29;42.73;101152.78;4925412;29;20012;-76
2021/08/27 09:29:43;;;;;;;1.08;0.80;;;;;;;22.29;42.70;101159.16;4926164;29;20535;-74
2021/08/27 09:32:22;;;;;;;0.60;0.60;;;;;;;22.31;42.41;101164.41;4919459;29;20039;-77
2021/08/27 09:34:59;;;;;;;1.63;0.88;;;;;;;22.34;42.64;101166.59;4925847;29;20052;-77
2021/08/27 09:37:57;;;;;;;1.15;0.80;;;;;;;22.48;42.56;101164.41;4900048;29;20032;-78
2021/08/27 09:40:32;;;;;;;1.02;0.55;;;;;;;22.57;42.20;101158.03;4907129;29;20036;-73
2021/08/27 09:42:58;;;;;;;1.52;0.30;;;;;;;22.60;41.80;101157.38;4923849;29;20028;-74
2021/08/27 09:45:36;;;;;;;0.45;0.43;;;;;;;22.73;42.01;101150.78;4925956;29;20056;-76
2021/08/27 09:48:07;;;;;;;0.63;0.50;;;;;;;22.71;41.57;101150.31;4924530;29;20027;-75
2021/08/27 09:50:40;;;;;;;0.30;0.30;;;;;;;22.75;41.60;101142.91;4926752;29;20054;-75
2021/08/27 09:53:08;;;;;;;0.45;0.40;;;;;;;22.79;41.39;101148.63;4892595;29;20095;-73
2021/08/27 09:55:35;;;;;;;1.45;0.50;;;;;;;22.80;41.30;101142.72;4908044;29;20538;-74
2021/08/27 09:58:27;;;;;;;0.70;0.32;;;;;;;22.78;40.96;101153.41;4890780;29;20079;-73
2021/08/27 10:01:07;;;;;;;1.40;0.63;;;;;;;22.61;40.53;101159.81;4911992;29;20047;-75
2021/08/27 10:04:21;;;;;;;0.50;0.50;;;;;;;22.46;40.83;101158.38;4922383;29;20032;-73
2021/08/27 10:06:47;;;;;;;0.73;0.40;;;;;;;22.28;41.11;101151.13;4902653;29;20044;-74
2021/08/27 10:09:23;;;;;;;0.80;0.50;;;;;;;22.22;41.24;101152.44;4915116;29;20029;-74
2021/08/27 10:12:03;;;;;;;0.73;0.50;;;;;;;22.14;41.16;101157.69;4894735;29;20058;-75
2021/08/27 10:14:37;;;;;;;1.20;0.63;;;;;;;22.10;41.41;101148.34;4912469;29;20024;-77
2021/08/27 10:17:07;;;;;;;0.57;0.30;;;;;;;22.12;41.30;101151.63;4897279;29;20051;-74
2021/08/27 10:19:37;;;;;;;1.00;0.60;;;;;;;22.11;41.11;101147.19;4928602;29;20059;-73
2021/08/27 10:22:03;;;;;;;0.93;0.50;;;;;;;22.03;40.98;101144.41;4923774;29;20127;-75
2021/08/27 10:24:31;;;;;;;0.38;0.30;;;;;;;21.95;41.02;101143.28;4923725;29;20033;-78
2021/08/27 10:27:00;;;;;;;1.75;0.32;;;;;;;21.95;41.27;101160.78;4922431;29;20032;-74
2021/08/27 10:29:31;;;;;;;0.50;0.50;;;;;;;21.91;41.50;101159.78;4919044;29;20120;-74
2021/08/27 10:31:57;;;;;;;0.40;0.30;;;;;;;21.83;41.19;101155.03;4904727;29;20388;-73
2021/08/27 10:34:51;;;;;;;0.30;0.30;;;;;;;21.90;41.64;101154.56;4897041;29;20031;-73
2021/08/27 10:37:41;;;;;;;0.22;0.22;;;;;;;21.98;41.58;101153.75;4923777;29;20034;-74
2021/08/27 10:40:27;;;;;;;0.57;0.47;;;;;;;22.07;41.21;101150.97;4925806;29;20016;-74
2021/08/27 10:42:54;;;;;;;0.25;0.20;;;;;;;22.11;41.13;101157.53;4905374;29;20044;-75
2021/08/27 10:46:25;;;;;;;0.68;0.40;;;;;;;22.28;41.03;101151.13;4898219;29;20055;-74
2021/08/27 10:52:37;;;;;;;0.32;0.30;;;;;;;22.70;40.68;101159.00;4865005;29;20075;-74
2021/08/27 10:55:03;;;;;;;0.35;0.20;;;;;;;22.87;40.13;101152.53;4881294;29;20048;-75
2021/08/27 10:58:03;;;;;;;0.55;0.38;;;;;;;23.08;39.84;101159.06;4902683;29;20056;-73
2021/08/27 11:00:31;;;;;;;0.50;0.30;;;;;;;23.13;39.01;101158.91;4912033;29;20042;-76
2021/08/27 11:03:07;;;;;;;;;;;;;;;;;;;;;
2021/08/27 11:05:41;;;;;;;0.50;0.50;;;;;;;23.21;38.89;101160.03;4909110;29;20088;-73
2021/08/27 11:08:13;;;;;;;0.30;0.20;;;;;;;23.23;38.38;101165.25;4922942;29;20061;-74
2021/08/27 11:10:41;;;;;;;0.45;0.22;;;;;;;23.18;38.70;101150.34;4901206;29;20052;-72
2021/08/27 11:13:19;;;;;;;3.22;0.43;;;;;;;23.19;38.78;101156.75;4921359;29;20016;-75
2021/08/27 11:15:47;;;;;;;0.40;0.40;;;;;;;23.24;38.43;101158.53;4927009;29;20562;-75
2021/08/27 11:18:15;;;;;;;0.85;0.55;;;;;;;23.24;38.04;101155.75;4901581;29;20059;-75
2021/08/27 11:20:41;;;;;;;0.32;0.28;;;;;;;23.11;38.00;101149.22;4919512;29;20067;-76
2021/08/27 11:23:07;;;;;;;0.68;0.40;;;;;;;23.05;37.89;101158.91;4924953;29;20035;-77
2021/08/27 11:25:33;;;;;;;1.48;0.45;;;;;;;23.06;38.28;101169.72;4909319;29;20379;-73
2021/08/27 11:28:13;;;;;;;0.47;0.30;;;;;;;23.07;38.73;101159.38;4927332;29;20031;-75
2021/08/27 11:30:48;;;;;;;0.63;0.40;;;;;;;23.04;38.31;101166.44;4927159;29;20049;-76
2021/08/27 11:33:43;;;;;;;0.30;0.30;;;;;;;23.17;38.44;101162.69;4908699;29;20499;-76
2021/08/27 11:36:18;;;;;;;0.55;0.52;;;;;;;23.10;38.23;101154.00;4928561;29;20043;-78
2021/08/27 11:38:49;;;;;;;0.40;0.40;;;;;;;23.14;38.38;101160.56;4926490;29;20056;-77
2021/08/27 11:41:15;;;;;;;1.00;0.43;;;;;;;23.17;37.84;101162.69;4902976;29;20075;-74
2021/08/27 11:43:46;;;;;;;0.30;0.30;;;;;;;23.16;38.10;101163.81;4920748;29;20049;-75
2021/08/27 11:46:22;;;;;;;0.50;0.32;;;;;;;23.11;38.27;101161.19;4931397;29;20027;-73
2021/08/27 11:48:51;;;;;;;0.45;0.40;;;;;;;23.00;38.09;101171.06;4937085;29;20114;-75
2021/08/27 11:51:29;;;;;;;1.05;0.38;;;;;;;22.87;38.27;101163.69;4933922;29;20060;-74
2021/08/27 11:53:55;;;;;;;0.47;0.43;;;;;;;22.74;38.60;101158.00;4910906;29;20024;-75
2021/08/27 11:56:27;;;;;;;0.40;0.32;;;;;;;22.71;38.30;101153.09;4925190;29;20036;-76
2021/08/27 11:58:52;;;;;;;0.75;0.35;;;;;;;22.75;38.56;101165.22;4907662;29;20137;-75
2021/08/27 12:01:26;;;;;;;0.35;0.30;;;;;;;22.82;38.48;101159.13;4911716;29;20494;-77
2021/08/27 12:03:52;;;;;;;0.55;0.30;;;;;;;22.80;38.34;101142.72;4923708;29;20115;-76
2021/08/27 12:06:23;;;;;;;0.80;0.30;;;;;;;23.00;38.40;101155.16;4904448;29;20036;-74
2021/08/27 12:08:49;;;;;;;0.70;0.32;;;;;;;23.15;38.40;101150.22;4903750;29;20044;-74
2021/08/27 12:11:35;;;;;;;0.38;0.30;;;;;;;23.48;38.17;101155.97;4927635;29;20111;-73
2021/08/27 12:14:00;;;;;;;0.57;0.40;;;;;;;23.65;38.38;101148.66;4923336;29;20027;-73
2021/08/27 12:16:26;;;;;;;0.77;0.60;;;;;;;23.90;38.09;101163.63;4909206;29;20106;-75
2021/08/27 12:18:54;;;;;;;1.80;0.50;;;;;;;24.05;37.20;101156.63;4924273;29;20040;-75
2021/08/27 12:21:23;;;;;;;0.77;0.30;;;;;;;24.12;37.08;101151.28;4927274;29;20095;-74
2021/08/27 12:24:02;;;;;;;0.40;0.40;;;;;;;24.22;36.95;101153.69;4891140;29;20510;-74
2021/08/27 12:26:29;;;;;;;0.20;0.20;;;;;;;24.20;36.44;101152.41;4922478;29;20032;-73
2021/08/27 12:28:56;;;;;;;0.30;0.22;;;;;;;24.21;36.73;101159.59;4897684;29;20067;-74
2021/08/27 12:32:06;;;;;;;0.20;0.20;;;;;;;24.25;36.81;101154.16;4903730;29;20028;-74
2021/08/27 12:34:56;;;;;;;0.75;0.30;;;;;;;24.23;36.54;101155.31;5455839;24;20048;-74
2021/08/27 12:37:27;;;;;;;0.57;0.40;;;;;;;24.25;36.57;101151.38;4924926;29;20032;-75
2021/08/27 12:39:52;;;;;;;0.80;0.50;;;;;;;24.26;35.52;101165.00;4925106;29;20079;-76
2021/08/27 12:42:24;;;;;;;1.08;0.45;;;;;;;24.15;35.83;101161.81;4925964;29;20039;-74
2021/08/27 12:45:00;;;;;;;0.90;0.57;;;;;;;24.04;35.98;101163.38;4931843;29;20056;-74
2021/08/27 12:47:41;;;;;;;0.70;0.70;;;;;;;23.85;36.60;101163.78;4910954;29;20467;-73
2021/08/27 12:50:12;;;;;;;0.57;0.57;;;;;;;23.79;36.52;101168.75;4925136;29;20036;-74
2021/08/27 12:52:37;;;;;;;0.50;0.50;;;;;;;23.77;36.16;101165.50;4910483;29;20122;-74
2021/08/27 12:55:04;;;;;;;1.30;0.70;;;;;;;23.76;36.11;101163.00;4905942;29;20116;-74
2021/08/27 12:57:30;;;;;;;0.40;0.40;;;;;;;23.78;36.77;101161.53;4917931;29;20035;-74
2021/08/27 13:00:03;;;;;;;0.80;0.40;;;;;;;23.77;36.50;101162.72;4926414;29;20031;-76
2021/08/27 13:02:36;;;;;;;0.47;0.40;;;;;;;23.88;36.63;101161.16;4932362;29;20048;-75
2021/08/27 13:05:02;;;;;;;0.60;0.50;;;;;;;23.86;36.42;101148.72;4927416;29;20040;-76
2021/08/27 13:07:34;;;;;;;0.45;0.40;;;;;;;23.95;36.17;101165.41;4913972;29;20067;-76
2021/08/27 13:10:26;;;;;;;0.28;0.28;;;;;;;24.11;36.36;101162.81;4906892;29;20035;-75